createdAt,value
2017-09-11T00:01:12.259Z,12.50
2017-09-11T00:06:15.457Z,12.50
2017-09-11T00:11:18.685Z,12.40
2017-09-11T00:16:21.897Z,12.40
2017-09-11T00:21:25.108Z,12.20
2017-09-11T00:26:28.301Z,12.10
2017-09-11T00:31:31.561Z,12.20
2017-09-11T00:36:34.801Z,12.10
2017-09-11T00:41:37.989Z,12.00
2017-09-11T00:46:41.210Z,12.00
2017-09-11T00:51:44.401Z,12.00
2017-09-11T00:56:47.581Z,12.10
2017-09-11T01:01:51.045Z,12.30
2017-09-11T01:06:54.269Z,12.40
2017-09-11T01:11:57.492Z,12.50
2017-09-11T01:17:00.700Z,12.50
2017-09-11T01:22:03.891Z,12.60
2017-09-11T01:27:07.065Z,12.60
2017-09-11T01:32:10.255Z,12.70
2017-09-11T01:37:13.456Z,12.70
2017-09-11T01:42:16.700Z,12.70
2017-09-11T01:47:19.929Z,12.60
2017-09-11T01:52:23.133Z,12.60
2017-09-11T01:57:26.323Z,12.70
2017-09-11T02:02:29.525Z,12.80
2017-09-11T02:07:32.799Z,12.70
2017-09-11T02:12:36.024Z,12.70
2017-09-11T02:17:39.243Z,12.80
2017-09-11T02:22:42.544Z,12.80
2017-09-11T02:27:45.720Z,12.80
2017-09-11T02:32:48.927Z,12.70
2017-09-11T02:37:52.157Z,12.90
2017-09-11T02:42:55.370Z,12.90
2017-09-11T02:47:58.571Z,13.00
2017-09-11T02:53:01.803Z,13.00
2017-09-11T02:58:05.002Z,13.00
2017-09-11T03:03:08.226Z,13.00
2017-09-11T03:08:11.436Z,13.00
2017-09-11T03:13:14.638Z,12.90
2017-09-11T03:18:17.830Z,13.00
2017-09-11T03:23:21.051Z,13.00
2017-09-11T03:28:24.245Z,13.10
2017-09-11T03:33:27.461Z,13.10
2017-09-11T03:38:30.721Z,13.10
2017-09-11T03:43:33.927Z,13.10
2017-09-11T03:48:37.132Z,13.10
2017-09-11T03:53:40.319Z,13.10
2017-09-11T03:58:43.595Z,13.20
2017-09-11T04:03:46.827Z,13.20
2017-09-11T04:08:50.023Z,13.20
2017-09-11T04:13:53.226Z,13.40
2017-09-11T04:18:56.422Z,13.30
2017-09-11T04:23:59.639Z,13.20
2017-09-11T04:29:02.843Z,13.10
2017-09-11T04:34:06.052Z,13.10
2017-09-11T04:39:09.268Z,13.10
2017-09-11T04:44:12.450Z,13.20
2017-09-11T04:49:15.682Z,13.20
2017-09-11T04:54:18.893Z,13.30
2017-09-11T04:59:22.091Z,13.30
2017-09-11T05:04:25.281Z,13.30
2017-09-11T05:09:28.497Z,13.20
2017-09-11T05:14:31.723Z,13.00
2017-09-11T05:19:34.923Z,12.90
2017-09-11T05:24:38.110Z,12.80
2017-09-11T05:29:41.329Z,12.70
2017-09-11T05:34:44.552Z,12.80
2017-09-11T05:39:47.736Z,12.70
2017-09-11T05:44:50.942Z,12.60
2017-09-11T05:49:54.149Z,12.50
2017-09-11T05:54:57.348Z,12.40
2017-09-11T06:00:00.588Z,12.30
2017-09-11T06:05:03.865Z,12.20
2017-09-11T06:10:07.091Z,12.10
2017-09-11T06:15:10.279Z,12.10
2017-09-11T06:20:13.603Z,12.10
2017-09-11T06:25:16.803Z,12.30
2017-09-11T06:30:20.015Z,12.40
2017-09-11T06:35:23.295Z,12.40
2017-09-11T06:40:27.261Z,12.60
2017-09-11T06:45:30.457Z,12.60
2017-09-11T06:50:33.675Z,12.80
2017-09-11T06:55:37.038Z,13.10
2017-09-11T07:00:40.233Z,13.10
2017-09-11T07:05:43.440Z,13.20
2017-09-11T07:10:46.638Z,13.30
2017-09-11T07:15:49.844Z,13.50
2017-09-11T07:20:53.072Z,13.60
2017-09-11T07:25:56.273Z,13.60
2017-09-11T07:30:59.495Z,13.70
2017-09-11T07:36:02.717Z,14.10
2017-09-11T07:41:05.917Z,13.90
2017-09-11T07:46:09.149Z,13.80
2017-09-11T07:51:12.395Z,13.90
2017-09-11T07:56:15.702Z,13.90
2017-09-11T08:01:19.030Z,14.00
2017-09-11T08:06:22.235Z,14.00
2017-09-11T08:11:25.431Z,14.20
2017-09-11T08:16:29.414Z,14.60
2017-09-11T08:21:32.623Z,14.60
2017-09-11T08:26:35.840Z,14.90
2017-09-11T08:31:39.047Z,14.90
2017-09-11T08:36:42.250Z,15.00
2017-09-11T08:41:45.510Z,15.00
2017-09-11T08:46:48.718Z,14.80
2017-09-11T08:51:51.924Z,14.80
2017-09-11T08:56:55.141Z,15.00
2017-09-11T09:01:58.389Z,14.80
2017-09-11T09:07:01.569Z,14.90
2017-09-11T09:12:04.752Z,15.00
2017-09-11T09:17:07.964Z,14.90
2017-09-11T09:22:11.217Z,15.20
2017-09-11T09:27:14.427Z,15.20
2017-09-11T09:32:17.666Z,15.40
2017-09-11T09:37:20.875Z,15.40
2017-09-11T09:42:24.125Z,15.60
2017-09-11T09:47:27.349Z,16.10
2017-09-11T09:52:30.560Z,16.50
2017-09-11T09:57:33.789Z,16.60
2017-09-11T10:02:37.093Z,16.70
2017-09-11T10:07:40.287Z,16.70
2017-09-11T10:12:43.474Z,17.10
2017-09-11T10:17:46.684Z,16.60
2017-09-11T10:22:49.893Z,16.50
2017-09-11T10:27:53.141Z,16.40
2017-09-11T10:32:56.377Z,16.80
2017-09-11T10:37:59.569Z,17.60
2017-09-11T10:43:02.785Z,18.10
2017-09-11T10:48:06.348Z,17.90
2017-09-11T10:53:09.540Z,17.80
2017-09-11T10:58:12.756Z,17.50
2017-09-11T11:03:15.973Z,17.70
2017-09-11T11:08:19.169Z,18.00
2017-09-11T11:13:22.382Z,18.90
2017-09-11T11:18:25.566Z,19.20
2017-09-11T11:23:28.769Z,19.30
2017-09-11T11:28:32.029Z,19.50
2017-09-11T11:33:35.234Z,19.70
2017-09-11T11:38:38.441Z,19.60
2017-09-11T11:43:41.663Z,19.30
2017-09-11T11:48:44.868Z,19.90
2017-09-11T11:53:48.086Z,19.50
2017-09-11T11:58:51.286Z,19.70
2017-09-11T12:03:54.504Z,19.90
2017-09-11T12:08:57.699Z,20.40
2017-09-11T12:14:00.919Z,20.00
2017-09-11T12:19:04.124Z,19.30
2017-09-11T12:24:07.636Z,18.70
2017-09-11T12:29:10.836Z,18.10
2017-09-11T12:34:14.126Z,18.10
2017-09-11T12:39:17.335Z,18.30
2017-09-11T12:44:20.549Z,18.50
2017-09-11T12:49:23.793Z,18.80
2017-09-11T12:54:26.980Z,18.80
2017-09-11T12:59:30.236Z,19.60
2017-09-11T13:04:33.464Z,19.50
2017-09-11T13:09:36.650Z,18.80
2017-09-11T13:14:39.857Z,17.60
2017-09-11T13:19:43.058Z,17.80
2017-09-11T13:24:46.292Z,18.80
2017-09-11T13:29:50.271Z,19.30
2017-09-11T13:34:53.520Z,19.30
2017-09-11T13:39:57.518Z,20.10
2017-09-11T13:45:00.747Z,20.00
2017-09-11T13:50:03.986Z,19.70
2017-09-11T13:55:07.180Z,19.70
2017-09-11T14:00:10.389Z,19.60
2017-09-11T14:05:13.599Z,20.20
2017-09-11T14:10:16.799Z,19.90
2017-09-11T14:15:20.022Z,19.60
2017-09-11T14:20:23.233Z,19.90
2017-09-11T14:25:26.444Z,20.00
2017-09-11T14:30:29.661Z,20.40
2017-09-11T14:35:32.880Z,20.20
2017-09-11T14:40:36.526Z,19.60
2017-09-11T14:45:39.726Z,19.70
2017-09-11T14:50:43.753Z,19.90
2017-09-11T14:55:46.979Z,19.80
2017-09-11T15:00:50.198Z,20.10
2017-09-11T15:05:53.422Z,19.80
2017-09-11T15:10:56.620Z,19.70
2017-09-11T15:15:59.973Z,19.50
2017-09-11T15:21:03.966Z,19.90
2017-09-11T15:26:07.205Z,20.20
2017-09-11T15:31:10.427Z,20.10
2017-09-11T15:36:13.665Z,19.20
2017-09-11T15:41:16.872Z,19.00
2017-09-11T15:46:20.353Z,19.30
2017-09-11T15:51:23.592Z,19.10
2017-09-11T15:56:26.820Z,19.00
2017-09-11T16:01:30.021Z,18.50
2017-09-11T16:06:33.241Z,18.10
2017-09-11T16:11:36.451Z,17.70
2017-09-11T16:16:39.696Z,17.20
2017-09-11T16:21:42.938Z,17.00
2017-09-11T16:26:46.138Z,16.20
2017-09-11T16:31:49.366Z,15.80
2017-09-11T16:36:52.577Z,15.50
2017-09-11T16:41:55.940Z,15.10
2017-09-11T16:46:59.166Z,15.30
2017-09-11T16:52:02.448Z,15.60
2017-09-11T16:57:05.686Z,15.90
2017-09-11T17:02:08.920Z,15.80
2017-09-11T17:07:40.575Z,15.80
2017-09-11T17:12:43.754Z,15.80
2017-09-11T17:17:46.977Z,15.90
2017-09-11T17:22:50.956Z,15.70
2017-09-11T17:27:54.172Z,15.80
2017-09-11T17:32:57.393Z,15.70
2017-09-11T17:38:00.622Z,15.60
2017-09-11T17:43:04.667Z,15.70
2017-09-11T17:48:07.876Z,15.70
2017-09-11T17:53:11.087Z,15.70
2017-09-11T17:58:14.326Z,15.80
2017-09-11T18:03:17.514Z,15.80
2017-09-11T18:08:20.744Z,15.70
2017-09-11T18:13:23.937Z,15.40
2017-09-11T18:18:27.159Z,15.40
2017-09-11T18:23:30.515Z,15.40
2017-09-11T18:28:34.493Z,15.10
2017-09-11T18:33:37.750Z,15.10
2017-09-11T18:38:41.721Z,15.20
2017-09-11T18:43:44.943Z,15.10
2017-09-11T18:48:48.185Z,15.10
2017-09-11T18:53:52.191Z,14.80
2017-09-11T18:58:55.405Z,14.80
2017-09-11T19:03:59.388Z,14.60
2017-09-11T19:09:02.591Z,14.60
2017-09-11T19:14:05.798Z,14.40
2017-09-11T19:19:09.013Z,14.40
2017-09-11T19:24:12.261Z,14.30
2017-09-11T19:29:16.245Z,14.30
2017-09-11T19:34:19.465Z,14.30
2017-09-11T19:39:22.681Z,14.30
2017-09-11T19:44:25.911Z,14.30
2017-09-11T19:49:29.891Z,14.20
2017-09-11T19:54:33.110Z,14.20
2017-09-11T19:59:36.332Z,14.30
2017-09-11T20:04:39.561Z,14.20
2017-09-11T20:09:43.516Z,14.00
2017-09-11T20:14:46.743Z,14.00
2017-09-11T20:19:49.956Z,14.10
2017-09-11T20:24:53.168Z,14.10
2017-09-11T20:29:56.391Z,14.10
2017-09-11T20:34:59.614Z,14.10
2017-09-11T20:40:03.057Z,14.20
2017-09-11T20:45:06.282Z,14.20
2017-09-11T20:50:09.494Z,14.20
2017-09-11T20:55:12.696Z,14.20
2017-09-11T21:00:15.945Z,14.20
2017-09-11T21:05:19.908Z,14.20
2017-09-11T21:10:23.158Z,14.20
2017-09-11T21:15:26.335Z,14.10
2017-09-11T21:20:29.646Z,14.20
2017-09-11T21:25:32.916Z,14.10
2017-09-11T21:30:37.025Z,13.80
2017-09-11T21:35:41.029Z,13.80
2017-09-11T21:40:44.232Z,13.80
2017-09-11T21:45:47.467Z,13.80
2017-09-11T21:50:51.434Z,13.90
2017-09-11T21:55:54.644Z,13.80
2017-09-11T22:00:57.843Z,13.90
2017-09-11T22:06:01.054Z,13.90
2017-09-11T22:11:04.279Z,14.10
2017-09-11T22:16:07.536Z,14.10
2017-09-11T22:21:11.566Z,14.00
2017-09-11T22:26:15.547Z,13.90
2017-09-11T22:31:18.853Z,13.90
2017-09-11T22:36:22.072Z,13.90
2017-09-11T22:41:25.277Z,13.80
2017-09-11T22:46:28.495Z,13.90
2017-09-11T22:51:31.692Z,14.00
2017-09-11T22:56:34.905Z,14.00
2017-09-11T23:01:38.117Z,14.00
2017-09-11T23:06:42.102Z,13.80
2017-09-11T23:11:45.305Z,13.70
2017-09-11T23:16:48.514Z,13.70
2017-09-11T23:21:51.713Z,13.80
2017-09-11T23:26:54.927Z,13.70
2017-09-11T23:31:58.146Z,13.60
2017-09-11T23:37:01.377Z,13.60
2017-09-11T23:42:05.461Z,13.60
2017-09-11T23:47:08.679Z,13.60
2017-09-11T23:52:11.888Z,13.60
2017-09-11T23:57:15.106Z,13.60
